createdAt,value
2022-08-03T00:02:18.760Z,101040.06
2022-08-03T00:04:47.132Z,101037.34
2022-08-03T00:07:16.514Z,101038.34
2022-08-03T00:09:44.861Z,101034.81
2022-08-03T00:12:12.843Z,101010.06
2022-08-03T00:14:40.836Z,101024.28
2022-08-03T00:17:09.870Z,101027.84
2022-08-03T00:19:37.945Z,101026.13
2022-08-03T00:22:06.018Z,101034.22
2022-08-03T00:24:36.286Z,101034.06
2022-08-03T00:27:04.384Z,101041.34
2022-08-03T00:29:32.441Z,101036.94
2022-08-03T00:32:00.745Z,101043.19
2022-08-03T00:34:36.424Z,101026.56
2022-08-03T00:37:18.258Z,101034.41
2022-08-03T00:39:48.159Z,101037.09
2022-08-03T00:42:17.087Z,101028.13
2022-08-03T00:44:46.269Z,101024.56
2022-08-03T00:47:14.247Z,101020.16
2022-08-03T00:49:43.058Z,101015.47
2022-08-03T00:52:12.361Z,101022.84
2022-08-03T00:54:41.295Z,101022.44
2022-08-03T00:57:10.746Z,101028.28
2022-08-03T00:59:39.737Z,101026.16
2022-08-03T01:02:07.772Z,101030.31
2022-08-03T01:04:35.762Z,101030.59
2022-08-03T01:07:12.549Z,101017.50
2022-08-03T01:09:52.982Z,101020.50
2022-08-03T01:12:29.941Z,101020.09
2022-08-03T01:15:04.362Z,101022.88
2022-08-03T01:17:38.010Z,101004.53
2022-08-03T01:20:09.210Z,101020.19
2022-08-03T01:23:06.996Z,101020.19
2022-08-03T01:25:44.806Z,101023.16
2022-08-03T01:28:28.124Z,101016.03
2022-08-03T01:31:02.745Z,101016.22
2022-08-03T01:33:37.481Z,101009.09
2022-08-03T01:36:08.813Z,100968.56
2022-08-03T01:38:43.094Z,101009.38
2022-08-03T01:41:14.929Z,101002.28
2022-08-03T01:44:26.680Z,101004.97
2022-08-03T01:46:40.409Z,100996.16
2022-08-03T01:49:16.277Z,101007.09
2022-08-03T01:52:02.831Z,101008.94
2022-08-03T01:54:35.876Z,100996.03
2022-08-03T01:57:04.963Z,101009.09
2022-08-03T01:59:35.960Z,101001.00
2022-08-03T02:02:28.554Z,101007.25
2022-08-03T02:04:57.640Z,101003.00
2022-08-03T02:07:27.640Z,100994.75
2022-08-03T02:09:56.865Z,101004.84
2022-08-03T02:12:29.745Z,101002.28
2022-08-03T02:15:00.074Z,101000.41
2022-08-03T02:17:38.643Z,100996.03
2022-08-03T02:20:12.120Z,100990.75
2022-08-03T02:22:42.148Z,100993.44
2022-08-03T02:25:11.581Z,100990.91
2022-08-03T02:27:43.809Z,100991.75
2022-08-03T02:30:14.454Z,100990.03
2022-08-03T02:32:48.605Z,100992.03
2022-08-03T02:35:19.691Z,100987.63
2022-08-03T02:37:51.562Z,100982.38
2022-08-03T02:40:21.776Z,100982.38
2022-08-03T02:42:52.797Z,100981.69
2022-08-03T02:45:21.598Z,100990.75
2022-08-03T02:47:54.991Z,100987.19
2022-08-03T02:50:25.061Z,100984.66
2022-08-03T02:52:54.394Z,100984.66
2022-08-03T02:55:23.676Z,100982.94
2022-08-03T02:57:53.854Z,100983.91
2022-08-03T03:00:28.500Z,100980.50
2022-08-03T03:03:00.430Z,100978.81
2022-08-03T03:05:52.635Z,100971.13
2022-08-03T03:08:28.164Z,100982.66
2022-08-03T03:10:57.502Z,100961.63
2022-08-03T03:13:26.609Z,100982.66
2022-08-03T03:15:57.742Z,100977.25
2022-08-03T03:18:29.751Z,100933.59
2022-08-03T03:20:59.111Z,100971.88
2022-08-03T03:23:29.469Z,100970.84
2022-08-03T03:25:59.026Z,100971.88
2022-08-03T03:28:27.608Z,100977.38
2022-08-03T03:30:55.600Z,100982.78
2022-08-03T03:33:24.045Z,100979.09
2022-08-03T03:35:54.666Z,100962.31
2022-08-03T03:38:22.740Z,100967.44
2022-08-03T03:40:50.778Z,100970.00
2022-08-03T03:43:19.645Z,100958.22
2022-08-03T03:45:48.839Z,100964.47
2022-08-03T03:48:17.269Z,100968.84
2022-08-03T03:50:45.932Z,100958.22
2022-08-03T03:53:15.906Z,100970.41
2022-08-03T03:56:02.086Z,100965.88
2022-08-03T03:58:32.143Z,100970.41
2022-08-03T04:01:00.434Z,100962.19
2022-08-03T04:03:28.597Z,100967.44
2022-08-03T04:06:13.540Z,100967.16
2022-08-03T04:09:00.360Z,100972.44
2022-08-03T04:11:33.254Z,100976.81
2022-08-03T04:14:06.292Z,100973.00
2022-08-03T04:16:43.196Z,100976.38
2022-08-03T04:19:18.453Z,100985.22
2022-08-03T04:21:53.074Z,100976.53
2022-08-03T04:24:30.040Z,100982.38
2022-08-03T04:27:00.450Z,100988.47
2022-08-03T04:29:31.995Z,100978.69
2022-08-03T04:32:03.067Z,100981.38
2022-08-03T04:34:31.857Z,100985.94
2022-08-03T04:37:02.478Z,100979.66
2022-08-03T04:39:33.955Z,100983.22
2022-08-03T04:42:08.561Z,100983.38
2022-08-03T04:44:40.520Z,100989.50
2022-08-03T04:47:09.271Z,100976.28
2022-08-03T04:49:38.577Z,100990.19
2022-08-03T04:52:10.143Z,100992.91
2022-08-03T04:54:50.317Z,100987.50
2022-08-03T04:57:23.305Z,100996.56
2022-08-03T04:59:58.303Z,100993.88
2022-08-03T05:02:31.165Z,100993.03
2022-08-03T05:04:59.620Z,100996.56
2022-08-03T05:07:35.786Z,100990.34
2022-08-03T05:10:15.176Z,100995.75
2022-08-03T05:12:45.698Z,100985.06
2022-08-03T05:15:14.045Z,100989.50
2022-08-03T05:17:42.824Z,100992.19
2022-08-03T05:20:12.303Z,100984.66
2022-08-03T05:22:40.287Z,100993.31
2022-08-03T05:25:10.173Z,100900.38
2022-08-03T05:27:47.029Z,100995.28
2022-08-03T05:30:31.431Z,101002.56
2022-08-03T05:33:03.877Z,100995.44
2022-08-03T05:36:00.818Z,100993.59
2022-08-03T05:38:23.690Z,100995.59
2022-08-03T05:41:20.168Z,100993.72
2022-08-03T05:43:46.617Z,100993.03
2022-08-03T05:46:14.752Z,100990.59
2022-08-03T05:48:43.022Z,100988.91
2022-08-03T05:51:12.456Z,100997.72
2022-08-03T05:53:41.305Z,100997.44
2022-08-03T05:56:13.698Z,100997.44
2022-08-03T05:58:44.435Z,100990.59
2022-08-03T06:01:12.543Z,100992.03
2022-08-03T06:03:40.559Z,100993.88
2022-08-03T06:06:08.562Z,101001.13
2022-08-03T06:08:36.861Z,100994.75
2022-08-03T06:11:05.001Z,100987.63
2022-08-03T06:13:34.597Z,100999.13
2022-08-03T06:16:02.621Z,100995.72
2022-08-03T06:18:30.584Z,101000.13
2022-08-03T06:20:58.513Z,101007.22
2022-08-03T06:23:53.075Z,101009.94
2022-08-03T06:26:23.163Z,101010.94
2022-08-03T06:28:54.194Z,101011.66
2022-08-03T06:31:24.178Z,101013.47
2022-08-03T06:34:30.882Z,101017.03
2022-08-03T06:36:40.500Z,101007.09
2022-08-03T06:39:08.591Z,101006.25
2022-08-03T06:41:37.686Z,101009.66
2022-08-03T06:44:14.281Z,101011.50
2022-08-03T06:46:43.384Z,100966.88
2022-08-03T06:49:11.505Z,101008.78
2022-08-03T06:52:04.117Z,101017.75
2022-08-03T06:54:27.549Z,101024.16
2022-08-03T06:56:55.676Z,101013.38
2022-08-03T07:00:09.789Z,101011.50
2022-08-03T07:02:13.233Z,101012.63
2022-08-03T07:04:47.271Z,101005.25
2022-08-03T07:07:15.307Z,101005.25
2022-08-03T07:09:43.269Z,101002.56
2022-08-03T07:12:26.193Z,100999.88
2022-08-03T07:15:00.246Z,100998.84
2022-08-03T07:17:31.361Z,100998.00
2022-08-03T07:19:59.583Z,100995.16
2022-08-03T07:22:28.390Z,100980.53
2022-08-03T07:24:56.531Z,100978.53
2022-08-03T07:27:26.939Z,100984.94
2022-08-03T07:29:56.652Z,100978.13
2022-08-03T07:32:25.206Z,100982.09
2022-08-03T07:34:55.807Z,100985.91
2022-08-03T07:37:28.234Z,100991.03
2022-08-03T07:39:56.357Z,100980.81
2022-08-03T07:42:24.421Z,100989.47
2022-08-03T07:44:52.388Z,100987.50
2022-08-03T07:47:24.197Z,100991.59
2022-08-03T07:49:52.590Z,100992.31
2022-08-03T07:52:38.425Z,100986.66
2022-08-03T07:55:07.490Z,100992.91
2022-08-03T07:57:36.240Z,100991.63
2022-08-03T08:00:06.451Z,100948.81
2022-08-03T08:02:42.268Z,101003.69
2022-08-03T08:05:11.252Z,101003.56
2022-08-03T08:07:39.930Z,101005.13
2022-08-03T08:10:10.087Z,100977.25
2022-08-03T08:12:38.700Z,101006.81
2022-08-03T08:15:08.467Z,101003.13
2022-08-03T08:17:45.210Z,100999.44
2022-08-03T08:20:18.192Z,100996.00
2022-08-03T08:22:56.973Z,101005.13
2022-08-03T08:25:25.213Z,101004.28
2022-08-03T08:28:31.768Z,101000.00
2022-08-03T08:30:41.669Z,101006.13
2022-08-03T08:33:22.569Z,101012.38
2022-08-03T08:35:53.085Z,101012.50
2022-08-03T08:38:21.148Z,101001.56
2022-08-03T08:40:49.920Z,100982.94
2022-08-03T08:43:17.967Z,100986.50
2022-08-03T08:45:48.469Z,100986.50
2022-08-03T08:48:22.279Z,100993.31
2022-08-03T08:50:53.497Z,100987.78
2022-08-03T08:53:27.313Z,100988.75
2022-08-03T08:56:00.690Z,100987.34
2022-08-03T08:58:31.786Z,100985.34
2022-08-03T09:01:00.220Z,100981.94
2022-08-03T09:03:30.950Z,100893.69
2022-08-03T09:06:02.269Z,100979.47
2022-08-03T09:08:31.428Z,100982.91
2022-08-03T09:10:59.417Z,100972.97
2022-08-03T09:13:27.436Z,100967.25
2022-08-03T09:16:12.535Z,100972.66
2022-08-03T09:18:43.501Z,100967.97
2022-08-03T09:21:30.626Z,100973.06
2022-08-03T09:24:03.679Z,100986.56
2022-08-03T09:26:34.281Z,100988.00
2022-08-03T09:29:07.196Z,100989.84
2022-08-03T09:31:43.906Z,100986.41
2022-08-03T09:34:15.240Z,100986.53
2022-08-03T09:36:45.677Z,100984.22
2022-08-03T09:39:15.233Z,100970.75
2022-08-03T09:41:45.860Z,100995.19
2022-08-03T09:44:24.379Z,100989.78
2022-08-03T09:46:56.396Z,100988.91
2022-08-03T09:49:26.262Z,100982.66
2022-08-03T09:52:30.269Z,100989.94
2022-08-03T09:54:44.135Z,100979.13
2022-08-03T09:57:23.167Z,100975.56
2022-08-03T09:59:58.788Z,100966.16
2022-08-03T10:02:41.136Z,100977.81
2022-08-03T10:05:19.606Z,100971.25
2022-08-03T10:07:49.750Z,100970.25
2022-08-03T10:10:31.142Z,100969.09
2022-08-03T10:13:01.289Z,100955.47
2022-08-03T10:16:21.763Z,100972.34
2022-08-03T10:18:18.151Z,100970.50
2022-08-03T10:20:52.811Z,100965.66
2022-08-03T10:23:22.591Z,100966.50
2022-08-03T10:25:55.901Z,100973.47
2022-08-03T10:28:24.882Z,100969.75
2022-08-03T10:30:55.228Z,100972.16
2022-08-03T10:33:50.310Z,100965.75
2022-08-03T10:36:18.805Z,100982.13
2022-08-03T10:38:52.670Z,100971.47
2022-08-03T10:41:22.443Z,100967.03
2022-08-03T10:43:57.296Z,100969.75
2022-08-03T10:46:27.551Z,100959.22
2022-08-03T10:48:57.620Z,100971.75
2022-08-03T10:51:32.151Z,100961.09
2022-08-03T10:54:01.740Z,100963.66
2022-08-03T10:56:57.831Z,100959.09
2022-08-03T10:59:58.753Z,100965.66
2022-08-03T11:02:59.869Z,100963.94
2022-08-03T11:05:29.339Z,100968.50
2022-08-03T11:08:30.159Z,100960.25
2022-08-03T11:11:00.703Z,100966.66
2022-08-03T11:13:31.927Z,100962.25
2022-08-03T11:16:05.880Z,100970.22
2022-08-03T11:18:35.240Z,100986.59
2022-08-03T11:21:04.089Z,100982.00
2022-08-03T11:24:05.336Z,100974.63
2022-08-03T11:26:32.947Z,100974.06
2022-08-03T11:29:29.021Z,100964.97
2022-08-03T11:31:57.111Z,100966.09
2022-08-03T11:34:25.471Z,100974.91
2022-08-03T11:37:31.491Z,100961.53
2022-08-03T11:40:03.104Z,100965.25
2022-08-03T11:42:41.371Z,100955.28
2022-08-03T11:45:11.019Z,100953.56
2022-08-03T11:47:50.706Z,100956.28
2022-08-03T11:50:21.503Z,100950.00
2022-08-03T11:52:50.707Z,100949.03
2022-08-03T11:55:22.002Z,100945.31
2022-08-03T11:59:10.592Z,100928.69
2022-08-03T12:00:38.743Z,100897.16
2022-08-03T12:03:08.721Z,100931.78
2022-08-03T12:05:42.221Z,100931.94
2022-08-03T12:08:31.071Z,100941.91
2022-08-03T12:11:03.124Z,100940.91
2022-08-03T12:14:45.747Z,100908.25
2022-08-03T12:16:28.757Z,100934.81
2022-08-03T12:18:58.213Z,100930.22
2022-08-03T12:21:26.723Z,100929.41
2022-08-03T12:24:00.410Z,100940.91
2022-08-03T12:26:31.236Z,100931.94
2022-08-03T12:28:59.265Z,100914.47
2022-08-03T12:31:27.350Z,100927.53
2022-08-03T12:34:04.059Z,100915.16
2022-08-03T12:36:35.335Z,100920.72
2022-08-03T12:39:05.642Z,100930.38
2022-08-03T12:41:36.636Z,100930.94
2022-08-03T12:44:06.408Z,100935.50
2022-08-03T12:46:36.092Z,100922.13
2022-08-03T12:49:09.255Z,100935.34
2022-08-03T12:51:39.186Z,100931.78
2022-08-03T12:54:07.650Z,100931.78
2022-08-03T12:56:37.311Z,100930.78
2022-08-03T12:59:32.303Z,100928.09
2022-08-03T13:02:09.339Z,100932.81
2022-08-03T13:04:38.052Z,100925.38
2022-08-03T13:07:12.670Z,100930.78
2022-08-03T13:09:44.282Z,100924.81
2022-08-03T13:12:14.985Z,100932.50
2022-08-03T13:14:44.202Z,100925.38
2022-08-03T13:17:12.304Z,100923.53
2022-08-03T13:19:41.963Z,100923.53
2022-08-03T13:22:13.733Z,100930.63
2022-08-03T13:24:42.524Z,100928.25
2022-08-03T13:28:02.148Z,100936.19
2022-08-03T13:30:00.136Z,100936.19
2022-08-03T13:32:28.222Z,100933.50
2022-08-03T13:34:56.197Z,100939.75
2022-08-03T13:37:24.542Z,100949.56
2022-08-03T13:40:00.179Z,100936.88
2022-08-03T13:42:31.476Z,100937.59
2022-08-03T13:45:01.653Z,100920.13
2022-08-03T13:47:30.092Z,100943.00
2022-08-03T13:50:01.646Z,100937.59
2022-08-03T13:52:34.946Z,100937.44
2022-08-03T13:55:05.190Z,100939.28
2022-08-03T13:58:06.132Z,100933.88
2022-08-03T14:00:28.956Z,100938.31
2022-08-03T14:03:05.361Z,100932.16
2022-08-03T14:05:38.877Z,100927.50
2022-08-03T14:08:08.077Z,100933.59
2022-08-03T14:10:37.479Z,100936.28
2022-08-03T14:13:06.646Z,100940.00
2022-08-03T14:15:38.315Z,100926.34
2022-08-03T14:18:12.839Z,100923.75
2022-08-03T14:20:49.071Z,100921.06
2022-08-03T14:23:18.537Z,100913.97
2022-08-03T14:25:52.338Z,100911.09
2022-08-03T14:28:22.781Z,100914.66
2022-08-03T14:30:53.692Z,100905.84
2022-08-03T14:33:21.842Z,100905.00
2022-08-03T14:35:50.327Z,100904.53
2022-08-03T14:38:19.013Z,100888.06
2022-08-03T14:40:47.284Z,100896.03
2022-08-03T14:43:17.853Z,100885.41
2022-08-03T14:45:45.872Z,100893.72
2022-08-03T14:50:29.395Z,100898.13
2022-08-03T14:51:03.257Z,100906.25
2022-08-03T14:53:31.221Z,100889.72
2022-08-03T14:55:59.199Z,100893.81
2022-08-03T14:58:27.298Z,100888.66
2022-08-03T15:00:56.544Z,100883.75
2022-08-03T15:03:26.584Z,100885.47
2022-08-03T15:05:57.144Z,100891.56
2022-08-03T15:08:26.957Z,100889.56
2022-08-03T15:10:55.555Z,100902.78
2022-08-03T15:13:25.320Z,100891.81
2022-08-03T15:15:53.693Z,100848.50
2022-08-03T15:18:21.682Z,100888.69
2022-08-03T15:20:51.168Z,100882.38
2022-08-03T15:23:20.037Z,100889.38
2022-08-03T15:26:03.612Z,100873.41
2022-08-03T15:28:37.542Z,100874.84
2022-08-03T15:31:06.316Z,100884.22
2022-08-03T15:33:35.180Z,100839.38
2022-08-03T15:36:05.633Z,100862.88
2022-08-03T15:38:33.677Z,100860.47
2022-08-03T15:41:01.648Z,100860.47
2022-08-03T15:43:29.696Z,100850.69
2022-08-03T15:46:26.932Z,100846.25
2022-08-03T15:48:46.973Z,100840.31
2022-08-03T15:51:16.560Z,100823.22
2022-08-03T15:53:44.533Z,100829.50
2022-08-03T15:56:18.167Z,100826.78
2022-08-03T15:59:09.395Z,100848.44
2022-08-03T16:01:35.683Z,100846.72
2022-08-03T16:04:03.716Z,100844.19
2022-08-03T16:06:35.361Z,100840.75
2022-08-03T16:09:05.875Z,100833.38
2022-08-03T16:11:52.495Z,100826.41
2022-08-03T16:14:32.224Z,100835.34
2022-08-03T16:17:04.226Z,100831.97
2022-08-03T16:19:32.309Z,100821.13
2022-08-03T16:22:02.050Z,100819.13
2022-08-03T16:24:31.837Z,100818.28
2022-08-03T16:27:00.774Z,100822.84
2022-08-03T16:29:29.547Z,100822.84
2022-08-03T16:31:57.668Z,100788.38
2022-08-03T16:34:25.700Z,100834.53
2022-08-03T16:36:54.643Z,100834.53
2022-08-03T16:39:24.022Z,100826.41
2022-08-03T16:41:54.490Z,100830.97
2022-08-03T16:44:31.230Z,100833.66
2022-08-03T16:46:59.664Z,100829.94
2022-08-03T16:49:55.757Z,100831.97
2022-08-03T16:52:16.630Z,100828.56
2022-08-03T16:54:50.625Z,100825.00
2022-08-03T16:57:59.343Z,100828.88
2022-08-03T17:00:12.261Z,100837.66
2022-08-03T17:03:01.369Z,100835.44
2022-08-03T17:05:47.450Z,100836.00
2022-08-03T17:08:16.282Z,100845.09
2022-08-03T17:10:48.440Z,100845.94
2022-08-03T17:13:21.777Z,100837.97
2022-08-03T17:15:57.922Z,100839.84
2022-08-03T17:18:29.853Z,100840.69
2022-08-03T17:20:59.489Z,100836.28
2022-08-03T17:23:39.605Z,100846.09
2022-08-03T17:26:21.204Z,100842.56
2022-08-03T17:28:57.512Z,100847.41
2022-08-03T17:31:32.285Z,100854.53
2022-08-03T17:34:15.121Z,100853.69
2022-08-03T17:37:03.772Z,100849.94
2022-08-03T17:39:56.997Z,100862.78
2022-08-03T17:42:39.100Z,100836.44
2022-08-03T17:45:08.461Z,100847.25
2022-08-03T17:47:43.898Z,100864.81
2022-08-03T17:50:24.364Z,100862.09
2022-08-03T17:53:06.806Z,100871.06
2022-08-03T17:55:56.582Z,100855.84
2022-08-03T18:02:11.596Z,100845.56
2022-08-03T18:05:00.740Z,100868.97
2022-08-03T18:07:41.115Z,100876.22
2022-08-03T18:13:04.064Z,100875.38
2022-08-03T18:15:44.399Z,100878.06
2022-08-03T18:18:15.837Z,100878.25
2022-08-03T18:20:45.502Z,100872.03
2022-08-03T18:26:04.842Z,100890.22
2022-08-03T18:28:34.985Z,100891.94
2022-08-03T18:31:06.863Z,100891.22
2022-08-03T18:34:17.023Z,100901.03
2022-08-03T18:36:30.280Z,100897.63
2022-08-03T18:39:16.641Z,100893.09
2022-08-03T18:41:47.786Z,100894.75
2022-08-03T18:44:46.540Z,100899.31
2022-08-03T18:47:50.717Z,100893.09
2022-08-03T18:50:24.599Z,100897.78
2022-08-03T18:52:58.969Z,100902.88
2022-08-03T18:55:33.407Z,100894.06
2022-08-03T18:58:17.899Z,100904.91
2022-08-03T19:00:54.275Z,100870.66
2022-08-03T19:03:42.713Z,100903.34
2022-08-03T19:06:19.743Z,100898.09
2022-08-03T19:08:55.587Z,100913.00
2022-08-03T19:11:28.232Z,100886.78
2022-08-03T19:13:59.272Z,100913.31
2022-08-03T19:16:34.208Z,100911.28
2022-08-03T19:19:03.906Z,100914.16
2022-08-03T19:21:36.093Z,100906.50
2022-08-03T19:24:09.718Z,100904.19
2022-08-03T19:26:39.960Z,100899.78
2022-08-03T19:29:14.807Z,100892.53
2022-08-03T19:31:54.448Z,100881.72
2022-08-03T19:34:30.761Z,100899.78
2022-08-03T19:36:59.501Z,100899.94
2022-08-03T19:39:28.030Z,100898.91
2022-08-03T19:42:08.179Z,100887.03
2022-08-03T19:44:41.381Z,100896.38
2022-08-03T19:50:05.891Z,100903.50
2022-08-03T19:52:42.346Z,100880.22
2022-08-03T19:55:12.827Z,100888.28
2022-08-03T19:57:43.648Z,100881.78
2022-08-03T20:00:19.471Z,100897.25
2022-08-03T20:02:47.815Z,100889.25
2022-08-03T20:05:20.436Z,100884.72
2022-08-03T20:07:48.713Z,100868.69
2022-08-03T20:10:17.784Z,100880.47
2022-08-03T20:12:47.276Z,100803.69
2022-08-03T20:15:18.370Z,100872.50
2022-08-03T20:17:59.487Z,100876.19
2022-08-03T20:20:30.959Z,100869.06
2022-08-03T20:23:01.178Z,100878.03
2022-08-03T20:25:38.719Z,100871.78
2022-08-03T20:28:14.045Z,100867.53
2022-08-03T20:30:46.315Z,100871.09
2022-08-03T20:33:18.682Z,100865.84
2022-08-03T20:35:49.854Z,100872.25
2022-08-03T20:38:19.915Z,100873.25
2022-08-03T20:40:56.279Z,100875.13
2022-08-03T20:43:27.437Z,100867.69
2022-08-03T20:46:00.142Z,100871.78
2022-08-03T20:48:48.577Z,100867.94
2022-08-03T20:51:48.996Z,100877.47
2022-08-03T20:54:22.792Z,100869.19
2022-08-03T20:56:56.398Z,100876.31
2022-08-03T20:59:28.570Z,100882.25
2022-08-03T21:01:58.527Z,100886.53
2022-08-03T21:04:26.513Z,100870.88
2022-08-03T21:07:01.163Z,100875.25
2022-08-03T21:09:41.081Z,100886.19
2022-08-03T21:12:17.844Z,100873.69
2022-08-03T21:12:57.105Z,100873.53
2022-08-03T21:12:57.899Z,100890.06
2022-08-03T21:13:02.898Z,100913.47
2022-08-03T21:13:05.447Z,100855.16
2022-08-03T21:14:53.478Z,100890.59
2022-08-03T21:17:39.907Z,100897.72
2022-08-03T21:20:11.263Z,100894.00
2022-08-03T21:22:45.173Z,100893.56
2022-08-03T21:25:16.089Z,100886.44
2022-08-03T21:27:44.312Z,100888.16
2022-08-03T21:30:13.037Z,100887.00
2022-08-03T21:32:45.448Z,100888.56
2022-08-03T21:35:14.571Z,100891.38
2022-08-03T21:37:44.858Z,100888.56
2022-08-03T21:40:15.077Z,100882.97
2022-08-03T21:42:45.890Z,100867.50
2022-08-03T21:45:17.446Z,100887.41
2022-08-03T21:47:47.015Z,100891.78
2022-08-03T21:50:15.223Z,100886.38
2022-08-03T21:52:46.729Z,100880.88
2022-08-03T21:55:18.666Z,100890.78
2022-08-03T21:57:54.513Z,100889.81
2022-08-03T22:00:24.578Z,100890.94
2022-08-03T22:02:55.337Z,100889.06
2022-08-03T22:05:42.533Z,100876.78
2022-08-03T22:08:14.562Z,100880.09
2022-08-03T22:10:45.429Z,100874.69
2022-08-03T22:13:14.109Z,100877.94
2022-08-03T22:15:42.252Z,100886.00
2022-08-03T22:18:10.657Z,100846.56
2022-08-03T22:20:38.666Z,100870.78
2022-08-03T22:23:08.636Z,100879.88
2022-08-03T22:25:40.662Z,100876.50
2022-08-03T22:28:11.046Z,100874.94
2022-08-03T22:30:40.867Z,100875.72
2022-08-03T22:33:12.015Z,100885.06
2022-08-03T22:35:48.039Z,100891.47
2022-08-03T22:38:17.472Z,100892.63
2022-08-03T22:40:51.061Z,100893.50
2022-08-03T22:43:22.708Z,100893.63
2022-08-03T22:46:09.528Z,100903.63
2022-08-03T22:48:41.607Z,100899.38
2022-08-03T22:51:10.596Z,100873.28
2022-08-03T22:53:40.352Z,100901.91
2022-08-03T22:56:09.886Z,100895.66
2022-08-03T22:58:37.859Z,100907.50
2022-08-03T23:01:08.300Z,100906.47
2022-08-03T23:04:00.775Z,100904.63
2022-08-03T23:06:34.607Z,100901.22
2022-08-03T23:09:05.757Z,100902.06
2022-08-03T23:11:37.916Z,100905.59
2022-08-03T23:14:12.749Z,100911.03
2022-08-03T23:16:42.482Z,100914.75
2022-08-03T23:19:16.674Z,100924.53
2022-08-03T23:22:00.657Z,100923.16
2022-08-03T23:24:34.483Z,100923.00
2022-08-03T23:27:06.187Z,100931.97
2022-08-03T23:29:36.510Z,100933.00
2022-08-03T23:32:06.061Z,100932.28
2022-08-03T23:34:51.709Z,100936.53
2022-08-03T23:37:20.938Z,100943.94
2022-08-03T23:39:50.118Z,100951.94
2022-08-03T23:42:21.338Z,100950.06
2022-08-03T23:44:55.096Z,100953.78
2022-08-03T23:47:23.993Z,100954.78
2022-08-03T23:49:52.250Z,100971.84
2022-08-03T23:52:29.035Z,100977.28
2022-08-03T23:55:11.541Z,100971.16
2022-08-03T23:57:51.921Z,100972.84
